createdAt,value
2019-06-26T00:01:19.807Z,23.80
2019-06-26T00:05:24.405Z,23.80
2019-06-26T00:09:29.948Z,23.70
2019-06-26T00:13:34.758Z,23.70
2019-06-26T00:17:39.969Z,23.60
2019-06-26T00:21:44.524Z,23.60
2019-06-26T00:25:49.068Z,23.50
2019-06-26T00:29:53.598Z,23.50
2019-06-26T00:33:58.151Z,23.50
2019-06-26T00:38:02.693Z,23.40
2019-06-26T00:42:07.588Z,23.40
2019-06-26T00:46:12.125Z,23.30
2019-06-26T00:50:16.801Z,23.30
2019-06-26T00:54:21.508Z,23.30
2019-06-26T00:58:26.340Z,23.30
2019-06-26T01:02:30.940Z,23.30
2019-06-26T01:06:44.458Z,23.30
2019-06-26T01:10:49.066Z,23.20
2019-06-26T01:14:53.854Z,23.20
2019-06-26T01:18:58.402Z,23.10
2019-06-26T01:23:02.935Z,23.10
2019-06-26T01:27:07.473Z,23.00
2019-06-26T01:31:12.001Z,23.00
2019-06-26T01:35:16.545Z,23.00
2019-06-26T01:39:21.118Z,23.00
2019-06-26T01:43:25.662Z,22.90
2019-06-26T01:47:30.298Z,22.90
2019-06-26T01:51:34.935Z,22.90
2019-06-26T01:55:39.674Z,22.90
2019-06-26T01:59:44.340Z,22.80
2019-06-26T02:03:49.052Z,22.80
2019-06-26T02:07:53.766Z,22.80
2019-06-26T02:12:00.454Z,22.70
2019-06-26T02:16:04.608Z,22.70
2019-06-26T02:20:09.620Z,22.70
2019-06-26T02:24:14.426Z,22.60
2019-06-26T02:28:19.041Z,22.60
2019-06-26T02:32:23.605Z,22.60
2019-06-26T02:36:28.196Z,22.60
2019-06-26T02:40:32.749Z,22.60
2019-06-26T02:44:52.037Z,22.50
2019-06-26T02:48:43.532Z,22.50
2019-06-26T02:52:48.137Z,22.50
2019-06-26T02:56:52.744Z,22.50
2019-06-26T03:00:57.318Z,22.50
2019-06-26T03:05:01.911Z,22.50
2019-06-26T03:09:07.597Z,22.50
2019-06-26T03:13:12.418Z,22.50
2019-06-26T03:17:17.241Z,22.50
2019-06-26T03:21:21.863Z,22.40
2019-06-26T03:25:26.407Z,22.40
2019-06-26T03:29:30.954Z,22.40
2019-06-26T03:33:35.560Z,22.40
2019-06-26T03:37:40.123Z,22.40
2019-06-26T03:41:45.752Z,22.30
2019-06-26T03:45:50.302Z,22.40
2019-06-26T03:49:55.207Z,22.40
2019-06-26T03:53:59.724Z,22.40
2019-06-26T03:58:04.262Z,22.50
2019-06-26T04:02:08.876Z,22.50
2019-06-26T04:06:13.429Z,22.50
2019-06-26T04:10:17.969Z,22.50
2019-06-26T04:14:22.511Z,22.50
2019-06-26T04:18:27.036Z,22.50
2019-06-26T04:22:31.577Z,22.50
2019-06-26T04:26:36.118Z,22.50
2019-06-26T04:30:40.657Z,22.50
2019-06-26T04:34:45.182Z,22.50
2019-06-26T04:38:49.709Z,22.50
2019-06-26T04:42:54.254Z,22.60
2019-06-26T04:46:58.829Z,22.60
2019-06-26T04:51:03.409Z,22.70
2019-06-26T04:55:08.683Z,22.80
2019-06-26T04:59:13.214Z,22.80
2019-06-26T05:03:18.041Z,22.80
2019-06-26T05:07:22.653Z,22.90
2019-06-26T05:11:27.185Z,22.90
2019-06-26T05:15:31.716Z,22.90
2019-06-26T05:19:36.272Z,22.90
2019-06-26T05:23:40.809Z,23.00
2019-06-26T05:27:45.345Z,23.00
2019-06-26T05:31:49.892Z,23.00
2019-06-26T05:35:54.405Z,23.00
2019-06-26T05:39:58.957Z,23.00
2019-06-26T05:44:04.731Z,23.10
2019-06-26T05:48:09.813Z,23.10
2019-06-26T05:52:16.613Z,23.10
2019-06-26T05:56:20.712Z,23.10
2019-06-26T06:00:25.346Z,23.10
2019-06-26T06:04:30.206Z,23.20
2019-06-26T06:08:34.745Z,23.20
2019-06-26T06:12:39.285Z,23.30
2019-06-26T06:16:47.767Z,23.30
2019-06-26T06:20:50.135Z,23.30
2019-06-26T06:24:54.685Z,23.30
2019-06-26T06:28:59.221Z,23.40
2019-06-26T06:33:03.822Z,23.40
2019-06-26T06:37:08.345Z,23.40
2019-06-26T06:41:12.902Z,23.40
2019-06-26T06:45:18.814Z,23.50
2019-06-26T06:49:22.652Z,23.50
2019-06-26T06:53:27.175Z,23.60
2019-06-26T06:57:32.009Z,23.70
2019-06-26T07:01:36.621Z,23.70
2019-06-26T07:05:41.153Z,23.80
2019-06-26T07:09:45.697Z,23.90
2019-06-26T07:13:50.234Z,23.90
2019-06-26T07:17:54.760Z,24.00
2019-06-26T07:21:59.381Z,24.00
2019-06-26T07:26:03.997Z,24.00
2019-06-26T07:30:10.374Z,24.10
2019-06-26T07:34:14.904Z,24.10
2019-06-26T07:38:19.452Z,24.10
2019-06-26T07:42:23.980Z,24.10
2019-06-26T07:46:28.517Z,24.20
2019-06-26T07:50:33.078Z,24.20
2019-06-26T07:54:37.624Z,24.20
2019-06-26T07:58:42.149Z,24.20
2019-06-26T08:02:46.685Z,24.30
2019-06-26T08:06:51.227Z,24.30
2019-06-26T08:10:55.856Z,24.30
2019-06-26T08:15:00.401Z,24.30
2019-06-26T08:19:04.988Z,24.30
2019-06-26T08:23:09.547Z,24.40
2019-06-26T08:27:14.141Z,24.40
2019-06-26T08:31:18.679Z,24.40
2019-06-26T08:35:23.284Z,24.40
2019-06-26T08:39:27.813Z,24.50
2019-06-26T08:43:32.352Z,24.50
2019-06-26T08:47:36.880Z,24.50
2019-06-26T08:51:41.424Z,24.50
2019-06-26T08:55:45.966Z,24.60
2019-06-26T08:59:50.518Z,24.60
2019-06-26T09:03:55.144Z,24.60
2019-06-26T09:07:59.767Z,24.60
2019-06-26T09:12:05.340Z,24.70
2019-06-26T09:16:09.950Z,24.70
2019-06-26T09:20:17.562Z,24.70
2019-06-26T09:24:22.092Z,24.80
2019-06-26T09:28:26.677Z,24.80
2019-06-26T09:32:31.209Z,24.80
2019-06-26T09:36:35.759Z,24.80
2019-06-26T09:40:40.281Z,24.80
2019-06-26T09:44:44.830Z,24.80
2019-06-26T09:48:53.137Z,24.90
2019-06-26T09:52:55.603Z,24.90
2019-06-26T09:57:00.237Z,24.90
2019-06-26T10:01:05.116Z,24.90
2019-06-26T10:05:10.303Z,24.90
2019-06-26T10:09:14.850Z,25.00
2019-06-26T10:13:19.698Z,24.90
2019-06-26T10:17:24.301Z,25.00
2019-06-26T10:21:28.832Z,25.00
2019-06-26T10:25:33.393Z,25.00
2019-06-26T10:29:38.069Z,25.00
2019-06-26T10:33:43.586Z,25.00
2019-06-26T10:37:48.131Z,25.00
2019-06-26T10:41:55.038Z,25.00
2019-06-26T10:45:58.889Z,25.00
2019-06-26T10:50:06.173Z,25.00
2019-06-26T10:54:10.735Z,25.00
2019-06-26T10:58:15.357Z,25.00
2019-06-26T11:02:20.057Z,25.00
2019-06-26T11:06:24.675Z,25.00
2019-06-26T11:10:29.229Z,25.00
2019-06-26T11:14:33.792Z,25.00
2019-06-26T11:18:38.313Z,25.00
2019-06-26T11:22:42.869Z,25.00
2019-06-26T11:26:47.417Z,25.00
2019-06-26T11:30:52.501Z,25.00
2019-06-26T11:34:57.048Z,25.10
2019-06-26T11:39:01.605Z,25.10
2019-06-26T11:43:06.357Z,25.10
2019-06-26T11:47:10.981Z,25.10
2019-06-26T11:51:15.559Z,25.10
2019-06-26T11:55:20.333Z,25.10
2019-06-26T11:59:24.861Z,25.10
2019-06-26T12:03:29.483Z,25.10
2019-06-26T12:07:34.117Z,25.10
2019-06-26T12:11:38.762Z,25.10
2019-06-26T12:15:43.278Z,25.20
2019-06-26T12:19:47.801Z,25.20
2019-06-26T12:23:52.353Z,25.20
2019-06-26T12:27:56.903Z,25.20
2019-06-26T12:32:01.437Z,25.20
2019-06-26T12:36:05.990Z,25.20
2019-06-26T12:40:10.964Z,25.20
2019-06-26T12:44:15.508Z,25.20
2019-06-26T12:48:20.074Z,25.30
2019-06-26T12:52:24.600Z,25.30
2019-06-26T12:56:29.147Z,25.30
2019-06-26T13:00:33.707Z,25.30
2019-06-26T13:04:38.239Z,25.30
2019-06-26T13:08:42.788Z,25.30
2019-06-26T13:12:47.337Z,25.40
2019-06-26T13:16:51.879Z,25.40
2019-06-26T13:20:59.424Z,25.40
2019-06-26T13:25:06.291Z,25.40
2019-06-26T13:29:10.829Z,25.40
2019-06-26T13:33:16.361Z,25.40
2019-06-26T13:37:20.907Z,25.40
2019-06-26T13:41:25.424Z,25.50
2019-06-26T13:45:30.006Z,25.40
2019-06-26T13:49:34.525Z,25.50
2019-06-26T13:53:39.071Z,25.50
2019-06-26T13:57:43.599Z,25.50
2019-06-26T14:01:48.126Z,25.50
2019-06-26T14:05:52.665Z,25.50
2019-06-26T14:09:57.223Z,25.50
2019-06-26T14:14:01.870Z,25.50
2019-06-26T14:18:06.473Z,25.50
2019-06-26T14:22:13.191Z,25.50
2019-06-26T14:26:17.893Z,25.50
2019-06-26T14:30:23.280Z,25.50
2019-06-26T14:34:29.368Z,25.60
2019-06-26T14:38:33.912Z,25.60
2019-06-26T14:42:38.502Z,25.60
2019-06-26T14:46:43.041Z,25.60
2019-06-26T14:50:47.593Z,25.60
2019-06-26T14:54:52.151Z,25.60
2019-06-26T14:58:56.733Z,25.60
2019-06-26T15:03:01.257Z,25.70
2019-06-26T15:07:05.800Z,25.70
2019-06-26T15:11:10.516Z,25.70
2019-06-26T15:15:16.897Z,25.70
2019-06-26T15:19:21.438Z,25.70
2019-06-26T15:23:25.967Z,25.70
2019-06-26T15:27:30.524Z,25.80
2019-06-26T15:31:35.045Z,25.80
2019-06-26T15:35:39.581Z,25.80
2019-06-26T15:39:44.118Z,25.80
2019-06-26T15:43:48.658Z,25.80
2019-06-26T15:47:53.198Z,25.80
2019-06-26T15:52:13.779Z,25.80
2019-06-26T15:56:03.988Z,25.80
2019-06-26T16:00:08.964Z,25.80
2019-06-26T16:04:13.501Z,25.80
2019-06-26T16:08:18.048Z,25.80
2019-06-26T16:12:22.600Z,25.90
2019-06-26T16:16:27.133Z,25.90
2019-06-26T16:20:31.679Z,25.90
2019-06-26T16:24:36.202Z,26.00
2019-06-26T16:28:40.748Z,26.10
2019-06-26T16:32:45.391Z,26.20
2019-06-26T16:36:49.926Z,26.20
2019-06-26T16:40:54.469Z,26.20
2019-06-26T16:44:59.011Z,26.20
2019-06-26T16:49:03.545Z,26.20
2019-06-26T16:53:08.079Z,26.20
2019-06-26T16:57:12.620Z,26.20
2019-06-26T17:01:17.175Z,26.20
2019-06-26T17:05:21.733Z,26.20
2019-06-26T17:09:26.507Z,26.20
2019-06-26T17:13:31.039Z,26.20
2019-06-26T17:17:35.786Z,26.20
2019-06-26T17:21:40.331Z,26.20
2019-06-26T17:25:44.875Z,26.20
2019-06-26T17:29:49.413Z,26.20
2019-06-26T17:33:53.950Z,26.20
2019-06-26T17:37:58.492Z,26.20
2019-06-26T17:42:03.031Z,26.10
2019-06-26T17:46:07.583Z,26.20
2019-06-26T17:50:12.559Z,26.20
2019-06-26T17:54:17.081Z,26.20
2019-06-26T17:58:25.144Z,26.10
2019-06-26T18:02:27.866Z,26.20
2019-06-26T18:06:32.408Z,26.20
2019-06-26T18:10:36.948Z,26.10
2019-06-26T18:14:43.322Z,26.20
2019-06-26T18:18:47.705Z,26.20
2019-06-26T18:23:06.018Z,26.20
2019-06-26T18:26:58.489Z,26.20
2019-06-26T18:31:03.043Z,26.20
2019-06-26T18:35:07.848Z,26.20
2019-06-26T18:39:12.362Z,26.20
2019-06-26T18:43:16.902Z,26.20
2019-06-26T18:47:21.444Z,26.20
2019-06-26T18:51:26.589Z,26.20
2019-06-26T18:55:31.129Z,26.20
2019-06-26T18:59:35.657Z,26.20
2019-06-26T19:03:40.215Z,26.20
2019-06-26T19:07:44.773Z,26.20
2019-06-26T19:11:49.307Z,26.20
2019-06-26T19:15:53.858Z,26.20
2019-06-26T19:19:58.394Z,26.20
2019-06-26T19:24:10.174Z,26.20
2019-06-26T19:28:11.043Z,26.20
2019-06-26T19:32:15.646Z,26.20
2019-06-26T19:36:24.198Z,26.20
2019-06-26T19:40:26.426Z,26.20
2019-06-26T19:44:30.974Z,26.30
2019-06-26T19:48:35.522Z,26.30
2019-06-26T19:52:40.129Z,26.30
2019-06-26T19:56:44.660Z,26.30
2019-06-26T20:00:49.208Z,26.30
2019-06-26T20:04:53.802Z,26.30
2019-06-26T20:08:58.350Z,26.30
2019-06-26T20:13:02.897Z,26.30
2019-06-26T20:17:07.674Z,26.30
2019-06-26T20:21:12.194Z,26.30
2019-06-26T20:25:17.082Z,26.30
2019-06-26T20:29:21.798Z,26.20
2019-06-26T20:33:27.086Z,26.30
2019-06-26T20:37:31.929Z,26.30
2019-06-26T20:41:36.450Z,26.30
2019-06-26T20:45:40.994Z,26.40
2019-06-26T20:49:53.144Z,26.40
2019-06-26T20:53:52.133Z,26.30
2019-06-26T20:57:56.713Z,26.30
2019-06-26T21:02:01.241Z,26.30
2019-06-26T21:06:05.788Z,26.30
2019-06-26T21:10:10.569Z,26.20
2019-06-26T21:14:15.123Z,26.20
2019-06-26T21:18:19.698Z,26.20
2019-06-26T21:22:24.239Z,26.20
2019-06-26T21:26:28.777Z,26.20
2019-06-26T21:30:33.339Z,26.20
2019-06-26T21:34:37.902Z,26.20
2019-06-26T21:38:42.485Z,26.10
2019-06-26T21:42:47.024Z,26.10
2019-06-26T21:46:51.573Z,26.00
2019-06-26T21:50:56.158Z,26.10
2019-06-26T21:55:00.720Z,26.00
2019-06-26T21:59:05.263Z,26.00
2019-06-26T22:03:10.775Z,26.00
2019-06-26T22:07:15.623Z,26.00
2019-06-26T22:11:20.133Z,26.00
2019-06-26T22:15:24.772Z,25.90
2019-06-26T22:19:29.304Z,25.90
2019-06-26T22:23:33.846Z,25.90
2019-06-26T22:27:38.386Z,25.90
2019-06-26T22:31:44.271Z,25.90
2019-06-26T22:35:48.856Z,25.90
2019-06-26T22:39:54.798Z,25.80
2019-06-26T22:43:58.537Z,25.80
2019-06-26T22:48:03.356Z,25.80
2019-06-26T22:52:07.977Z,25.80
2019-06-26T22:56:12.530Z,25.70
2019-06-26T23:00:18.379Z,25.70
2019-06-26T23:04:22.142Z,25.60
2019-06-26T23:08:26.615Z,25.70
2019-06-26T23:12:31.170Z,25.70
2019-06-26T23:16:35.720Z,25.60
2019-06-26T23:20:41.014Z,25.60
2019-06-26T23:24:45.827Z,25.60
2019-06-26T23:28:50.390Z,25.50
2019-06-26T23:32:54.942Z,25.50
2019-06-26T23:36:59.486Z,25.50
2019-06-26T23:41:04.111Z,25.50
2019-06-26T23:45:10.310Z,25.50
2019-06-26T23:49:14.893Z,25.50
2019-06-26T23:53:19.486Z,25.40
2019-06-26T23:57:24.011Z,25.40
